sensor_id;sensor_type;location;lat;lon;timestamp;temperature;humidity
23371;DHT22;11858;51.056;3.712;2024-02-21T00:01:40;10.40;99.90
23371;DHT22;11858;51.056;3.712;2024-02-21T00:04:06;10.40;99.90
23371;DHT22;11858;51.056;3.712;2024-02-21T00:06:31;10.40;99.90
23371;DHT22;11858;51.056;3.712;2024-02-21T00:08:58;10.30;99.90
23371;DHT22;11858;51.056;3.712;2024-02-21T00:11:23;10.30;99.90
23371;DHT22;11858;51.056;3.712;2024-02-21T00:13:49;10.30;99.90
23371;DHT22;11858;51.056;3.712;2024-02-21T00:16:16;10.30;99.90
23371;DHT22;11858;51.056;3.712;2024-02-21T00:18:42;10.30;99.90
23371;DHT22;11858;51.056;3.712;2024-02-21T00:21:08;10.30;99.90
23371;DHT22;11858;51.056;3.712;2024-02-21T00:23:34;10.30;99.90
23371;DHT22;11858;51.056;3.712;2024-02-21T00:25:59;10.30;99.90
23371;DHT22;11858;51.056;3.712;2024-02-21T00:28:25;10.30;99.90
23371;DHT22;11858;51.056;3.712;2024-02-21T00:30:51;10.20;99.90
23371;DHT22;11858;51.056;3.712;2024-02-21T00:33:18;10.20;99.90
23371;DHT22;11858;51.056;3.712;2024-02-21T00:35:44;10.00;99.90
23371;DHT22;11858;51.056;3.712;2024-02-21T00:38:10;10.10;99.90
23371;DHT22;11858;51.056;3.712;2024-02-21T00:40:35;10.00;99.90
23371;DHT22;11858;51.056;3.712;2024-02-21T00:43:01;9.90;99.90
23371;DHT22;11858;51.056;3.712;2024-02-21T00:45:27;9.90;99.90
23371;DHT22;11858;51.056;3.712;2024-02-21T00:47:52;10.00;99.90
23371;DHT22;11858;51.056;3.712;2024-02-21T00:50:18;10.00;99.90
23371;DHT22;11858;51.056;3.712;2024-02-21T00:52:43;9.90;99.90
23371;DHT22;11858;51.056;3.712;2024-02-21T00:55:10;9.80;99.90
23371;DHT22;11858;51.056;3.712;2024-02-21T00:57:36;9.80;99.90
23371;DHT22;11858;51.056;3.712;2024-02-21T01:00:03;9.70;99.90
23371;DHT22;11858;51.056;3.712;2024-02-21T01:02:28;9.80;99.90
23371;DHT22;11858;51.056;3.712;2024-02-21T01:04:57;9.90;99.90
23371;DHT22;11858;51.056;3.712;2024-02-21T01:07:23;9.90;99.90
23371;DHT22;11858;51.056;3.712;2024-02-21T01:09:48;9.80;99.90
23371;DHT22;11858;51.056;3.712;2024-02-21T01:12:16;9.80;99.90
23371;DHT22;11858;51.056;3.712;2024-02-21T01:14:42;9.70;99.90
23371;DHT22;11858;51.056;3.712;2024-02-21T01:17:08;9.70;99.90
23371;DHT22;11858;51.056;3.712;2024-02-21T01:19:33;9.80;99.90
23371;DHT22;11858;51.056;3.712;2024-02-21T01:21:59;9.80;99.90
23371;DHT22;11858;51.056;3.712;2024-02-21T01:24:25;9.70;99.90
23371;DHT22;11858;51.056;3.712;2024-02-21T01:26:50;9.70;99.90
23371;DHT22;11858;51.056;3.712;2024-02-21T01:29:16;9.70;99.90
23371;DHT22;11858;51.056;3.712;2024-02-21T01:31:41;9.60;99.90
23371;DHT22;11858;51.056;3.712;2024-02-21T01:34:07;9.60;99.90
23371;DHT22;11858;51.056;3.712;2024-02-21T01:36:33;9.60;99.90
23371;DHT22;11858;51.056;3.712;2024-02-21T01:38:58;9.50;99.90
23371;DHT22;11858;51.056;3.712;2024-02-21T01:41:24;9.60;99.90
23371;DHT22;11858;51.056;3.712;2024-02-21T01:43:50;9.70;99.90
23371;DHT22;11858;51.056;3.712;2024-02-21T01:46:15;9.80;99.90
23371;DHT22;11858;51.056;3.712;2024-02-21T01:48:41;9.80;99.90
23371;DHT22;11858;51.056;3.712;2024-02-21T01:51:07;9.70;99.90
23371;DHT22;11858;51.056;3.712;2024-02-21T01:53:36;9.60;99.90
23371;DHT22;11858;51.056;3.712;2024-02-21T01:56:04;9.50;99.90
23371;DHT22;11858;51.056;3.712;2024-02-21T01:58:31;9.60;99.90
23371;DHT22;11858;51.056;3.712;2024-02-21T02:00:57;9.70;99.90
23371;DHT22;11858;51.056;3.712;2024-02-21T02:03:23;9.70;99.90
23371;DHT22;11858;51.056;3.712;2024-02-21T02:05:51;9.60;99.90
23371;DHT22;11858;51.056;3.712;2024-02-21T02:08:18;9.60;99.90
23371;DHT22;11858;51.056;3.712;2024-02-21T02:10:44;9.70;99.90
23371;DHT22;11858;51.056;3.712;2024-02-21T02:13:11;9.60;99.90
23371;DHT22;11858;51.056;3.712;2024-02-21T02:15:48;9.60;99.90
23371;DHT22;11858;51.056;3.712;2024-02-21T02:18:15;9.60;99.90
23371;DHT22;11858;51.056;3.712;2024-02-21T02:20:41;9.60;99.90
23371;DHT22;11858;51.056;3.712;2024-02-21T02:23:30;9.50;99.90
23371;DHT22;11858;51.056;3.712;2024-02-21T02:25:59;9.50;99.90
23371;DHT22;11858;51.056;3.712;2024-02-21T02:28:26;9.50;99.90
23371;DHT22;11858;51.056;3.712;2024-02-21T02:30:52;9.50;99.90
23371;DHT22;11858;51.056;3.712;2024-02-21T02:33:18;9.50;99.90
23371;DHT22;11858;51.056;3.712;2024-02-21T02:35:44;9.40;99.90
23371;DHT22;11858;51.056;3.712;2024-02-21T02:38:10;9.40;99.90
23371;DHT22;11858;51.056;3.712;2024-02-21T02:40:38;9.50;99.90
23371;DHT22;11858;51.056;3.712;2024-02-21T02:43:05;9.50;99.90
23371;DHT22;11858;51.056;3.712;2024-02-21T02:45:32;9.50;99.90
23371;DHT22;11858;51.056;3.712;2024-02-21T02:47:58;9.50;99.90
23371;DHT22;11858;51.056;3.712;2024-02-21T02:50:24;9.50;99.90
23371;DHT22;11858;51.056;3.712;2024-02-21T02:52:50;9.50;99.90
23371;DHT22;11858;51.056;3.712;2024-02-21T02:55:15;9.40;99.90
23371;DHT22;11858;51.056;3.712;2024-02-21T02:57:41;9.40;99.90
23371;DHT22;11858;51.056;3.712;2024-02-21T03:00:08;9.30;99.90
23371;DHT22;11858;51.056;3.712;2024-02-21T03:02:35;9.30;99.90
23371;DHT22;11858;51.056;3.712;2024-02-21T03:05:00;9.30;99.90
23371;DHT22;11858;51.056;3.712;2024-02-21T03:07:26;9.40;99.90
23371;DHT22;11858;51.056;3.712;2024-02-21T03:09:52;9.40;99.90
23371;DHT22;11858;51.056;3.712;2024-02-21T03:12:18;9.40;99.90
23371;DHT22;11858;51.056;3.712;2024-02-21T03:14:50;9.30;99.90
23371;DHT22;11858;51.056;3.712;2024-02-21T03:17:16;9.30;99.90
23371;DHT22;11858;51.056;3.712;2024-02-21T03:19:41;9.20;99.90
23371;DHT22;11858;51.056;3.712;2024-02-21T03:22:07;9.30;99.90
23371;DHT22;11858;51.056;3.712;2024-02-21T03:24:33;9.20;99.90
23371;DHT22;11858;51.056;3.712;2024-02-21T03:26:59;9.10;99.90
23371;DHT22;11858;51.056;3.712;2024-02-21T03:29:25;9.20;99.90
23371;DHT22;11858;51.056;3.712;2024-02-21T03:31:51;9.20;99.90
23371;DHT22;11858;51.056;3.712;2024-02-21T03:34:16;9.30;99.90
23371;DHT22;11858;51.056;3.712;2024-02-21T03:36:42;9.30;99.90
23371;DHT22;11858;51.056;3.712;2024-02-21T03:39:08;9.20;99.90
23371;DHT22;11858;51.056;3.712;2024-02-21T03:41:35;9.30;99.90
23371;DHT22;11858;51.056;3.712;2024-02-21T03:44:00;9.40;99.90
23371;DHT22;11858;51.056;3.712;2024-02-21T03:46:27;9.30;99.90
23371;DHT22;11858;51.056;3.712;2024-02-21T03:48:53;9.30;99.90
23371;DHT22;11858;51.056;3.712;2024-02-21T03:51:19;9.20;99.90
23371;DHT22;11858;51.056;3.712;2024-02-21T03:53:44;9.10;99.90
23371;DHT22;11858;51.056;3.712;2024-02-21T03:56:10;9.20;99.90
23371;DHT22;11858;51.056;3.712;2024-02-21T03:58:35;9.30;99.90
23371;DHT22;11858;51.056;3.712;2024-02-21T04:01:02;9.20;99.90
23371;DHT22;11858;51.056;3.712;2024-02-21T04:03:28;9.30;99.90
23371;DHT22;11858;51.056;3.712;2024-02-21T04:05:54;9.30;99.90
23371;DHT22;11858;51.056;3.712;2024-02-21T04:08:19;9.30;99.90
23371;DHT22;11858;51.056;3.712;2024-02-21T04:10:45;9.40;99.90
23371;DHT22;11858;51.056;3.712;2024-02-21T04:13:11;9.30;99.90
23371;DHT22;11858;51.056;3.712;2024-02-21T04:15:36;9.30;99.90
23371;DHT22;11858;51.056;3.712;2024-02-21T04:18:02;9.20;99.90
23371;DHT22;11858;51.056;3.712;2024-02-21T04:20:31;9.10;99.90
23371;DHT22;11858;51.056;3.712;2024-02-21T04:22:57;9.10;99.90
23371;DHT22;11858;51.056;3.712;2024-02-21T04:25:23;9.20;99.90
23371;DHT22;11858;51.056;3.712;2024-02-21T04:27:49;9.20;99.90
23371;DHT22;11858;51.056;3.712;2024-02-21T04:30:15;9.30;99.90
23371;DHT22;11858;51.056;3.712;2024-02-21T04:32:41;9.20;99.90
23371;DHT22;11858;51.056;3.712;2024-02-21T04:35:07;9.20;99.90
23371;DHT22;11858;51.056;3.712;2024-02-21T04:37:33;9.30;99.90
23371;DHT22;11858;51.056;3.712;2024-02-21T04:39:59;9.40;99.90
23371;DHT22;11858;51.056;3.712;2024-02-21T04:42:24;9.50;99.90
23371;DHT22;11858;51.056;3.712;2024-02-21T04:44:50;9.30;99.90
23371;DHT22;11858;51.056;3.712;2024-02-21T04:47:16;9.40;99.90
23371;DHT22;11858;51.056;3.712;2024-02-21T04:49:41;9.40;99.90
23371;DHT22;11858;51.056;3.712;2024-02-21T04:52:07;9.30;99.90
23371;DHT22;11858;51.056;3.712;2024-02-21T04:54:32;9.30;99.90
23371;DHT22;11858;51.056;3.712;2024-02-21T04:57:00;9.40;99.90
23371;DHT22;11858;51.056;3.712;2024-02-21T04:59:26;9.40;99.90
23371;DHT22;11858;51.056;3.712;2024-02-21T05:01:52;9.40;99.90
23371;DHT22;11858;51.056;3.712;2024-02-21T05:04:17;9.40;99.90
23371;DHT22;11858;51.056;3.712;2024-02-21T05:06:43;9.40;99.90
23371;DHT22;11858;51.056;3.712;2024-02-21T05:09:10;9.30;99.90
23371;DHT22;11858;51.056;3.712;2024-02-21T05:11:36;9.30;99.90
23371;DHT22;11858;51.056;3.712;2024-02-21T05:14:03;9.40;99.90
23371;DHT22;11858;51.056;3.712;2024-02-21T05:16:29;9.30;99.90
23371;DHT22;11858;51.056;3.712;2024-02-21T05:18:55;9.30;99.90
23371;DHT22;11858;51.056;3.712;2024-02-21T05:21:23;9.30;99.90
23371;DHT22;11858;51.056;3.712;2024-02-21T05:23:52;9.40;99.90
23371;DHT22;11858;51.056;3.712;2024-02-21T05:26:24;9.50;99.90
23371;DHT22;11858;51.056;3.712;2024-02-21T05:28:50;9.40;99.90
23371;DHT22;11858;51.056;3.712;2024-02-21T05:31:17;9.50;99.90
23371;DHT22;11858;51.056;3.712;2024-02-21T05:33:44;9.40;99.90
23371;DHT22;11858;51.056;3.712;2024-02-21T05:36:10;9.40;99.90
23371;DHT22;11858;51.056;3.712;2024-02-21T05:38:36;9.40;99.90
23371;DHT22;11858;51.056;3.712;2024-02-21T05:41:02;9.40;99.90
23371;DHT22;11858;51.056;3.712;2024-02-21T05:43:28;9.40;99.90
23371;DHT22;11858;51.056;3.712;2024-02-21T05:45:53;9.50;99.90
23371;DHT22;11858;51.056;3.712;2024-02-21T05:48:20;9.40;99.90
23371;DHT22;11858;51.056;3.712;2024-02-21T05:50:45;9.40;99.90
23371;DHT22;11858;51.056;3.712;2024-02-21T05:53:11;9.40;99.90
23371;DHT22;11858;51.056;3.712;2024-02-21T05:55:38;9.30;99.90
23371;DHT22;11858;51.056;3.712;2024-02-21T05:58:03;9.20;99.90
23371;DHT22;11858;51.056;3.712;2024-02-21T06:00:29;9.30;99.90
23371;DHT22;11858;51.056;3.712;2024-02-21T06:02:55;9.40;99.90
23371;DHT22;11858;51.056;3.712;2024-02-21T06:05:21;9.40;99.90
23371;DHT22;11858;51.056;3.712;2024-02-21T06:07:46;9.40;99.90
23371;DHT22;11858;51.056;3.712;2024-02-21T06:10:12;9.40;99.90
23371;DHT22;11858;51.056;3.712;2024-02-21T06:12:38;9.30;99.90
23371;DHT22;11858;51.056;3.712;2024-02-21T06:15:04;9.20;99.90
23371;DHT22;11858;51.056;3.712;2024-02-21T06:17:29;9.20;99.90
23371;DHT22;11858;51.056;3.712;2024-02-21T06:19:55;9.20;99.90
23371;DHT22;11858;51.056;3.712;2024-02-21T06:22:21;9.20;99.90
23371;DHT22;11858;51.056;3.712;2024-02-21T06:24:46;9.30;99.90
23371;DHT22;11858;51.056;3.712;2024-02-21T06:27:12;9.20;99.90
23371;DHT22;11858;51.056;3.712;2024-02-21T06:29:37;9.30;99.90
23371;DHT22;11858;51.056;3.712;2024-02-21T06:32:04;9.30;99.90
23371;DHT22;11858;51.056;3.712;2024-02-21T06:34:31;9.30;99.90
23371;DHT22;11858;51.056;3.712;2024-02-21T06:36:56;9.40;99.90
23371;DHT22;11858;51.056;3.712;2024-02-21T06:39:22;9.40;99.90
23371;DHT22;11858;51.056;3.712;2024-02-21T06:41:49;9.30;99.90
23371;DHT22;11858;51.056;3.712;2024-02-21T06:44:16;9.30;99.90
23371;DHT22;11858;51.056;3.712;2024-02-21T06:46:42;9.30;99.90
23371;DHT22;11858;51.056;3.712;2024-02-21T06:49:07;9.40;99.90
23371;DHT22;11858;51.056;3.712;2024-02-21T06:51:33;9.40;99.90
23371;DHT22;11858;51.056;3.712;2024-02-21T06:54:00;9.30;99.90
23371;DHT22;11858;51.056;3.712;2024-02-21T06:56:26;9.40;99.90
23371;DHT22;11858;51.056;3.712;2024-02-21T06:58:54;9.40;99.90
23371;DHT22;11858;51.056;3.712;2024-02-21T07:01:20;9.50;99.90
23371;DHT22;11858;51.056;3.712;2024-02-21T07:03:45;9.50;99.90
23371;DHT22;11858;51.056;3.712;2024-02-21T07:06:11;9.50;99.90
23371;DHT22;11858;51.056;3.712;2024-02-21T07:08:38;9.50;99.90
23371;DHT22;11858;51.056;3.712;2024-02-21T07:11:04;9.50;99.90
23371;DHT22;11858;51.056;3.712;2024-02-21T07:13:30;9.50;99.90
23371;DHT22;11858;51.056;3.712;2024-02-21T07:15:55;9.50;99.90
23371;DHT22;11858;51.056;3.712;2024-02-21T07:18:21;9.60;99.90
23371;DHT22;11858;51.056;3.712;2024-02-21T07:20:47;9.60;99.90
23371;DHT22;11858;51.056;3.712;2024-02-21T07:23:12;9.70;99.90
23371;DHT22;11858;51.056;3.712;2024-02-21T07:25:38;9.60;99.90
23371;DHT22;11858;51.056;3.712;2024-02-21T07:28:05;9.70;99.90
23371;DHT22;11858;51.056;3.712;2024-02-21T07:30:31;9.60;99.90
23371;DHT22;11858;51.056;3.712;2024-02-21T07:32:57;9.60;99.90
23371;DHT22;11858;51.056;3.712;2024-02-21T07:35:23;9.50;99.90
23371;DHT22;11858;51.056;3.712;2024-02-21T07:37:48;9.40;99.90
23371;DHT22;11858;51.056;3.712;2024-02-21T07:40:15;9.50;99.90
23371;DHT22;11858;51.056;3.712;2024-02-21T07:42:41;9.60;99.90
23371;DHT22;11858;51.056;3.712;2024-02-21T07:45:08;9.50;99.90
23371;DHT22;11858;51.056;3.712;2024-02-21T07:47:34;9.70;99.90
23371;DHT22;11858;51.056;3.712;2024-02-21T07:50:00;9.60;99.90
23371;DHT22;11858;51.056;3.712;2024-02-21T07:52:26;9.60;99.90
23371;DHT22;11858;51.056;3.712;2024-02-21T07:54:51;9.70;99.90
23371;DHT22;11858;51.056;3.712;2024-02-21T07:57:17;9.60;99.90
23371;DHT22;11858;51.056;3.712;2024-02-21T07:59:43;9.60;99.90
23371;DHT22;11858;51.056;3.712;2024-02-21T08:02:09;9.50;99.90
23371;DHT22;11858;51.056;3.712;2024-02-21T08:04:35;9.70;99.90
23371;DHT22;11858;51.056;3.712;2024-02-21T08:07:00;9.70;99.90
23371;DHT22;11858;51.056;3.712;2024-02-21T08:09:28;9.60;99.90
23371;DHT22;11858;51.056;3.712;2024-02-21T08:11:57;9.60;99.90
23371;DHT22;11858;51.056;3.712;2024-02-21T08:14:23;9.70;99.90
23371;DHT22;11858;51.056;3.712;2024-02-21T08:16:50;9.60;99.90
23371;DHT22;11858;51.056;3.712;2024-02-21T08:19:16;9.60;99.90
23371;DHT22;11858;51.056;3.712;2024-02-21T08:21:42;9.50;99.90
23371;DHT22;11858;51.056;3.712;2024-02-21T08:24:08;9.60;99.90
23371;DHT22;11858;51.056;3.712;2024-02-21T08:26:33;9.50;99.90
23371;DHT22;11858;51.056;3.712;2024-02-21T08:28:59;9.70;99.90
23371;DHT22;11858;51.056;3.712;2024-02-21T08:31:26;9.80;99.90
23371;DHT22;11858;51.056;3.712;2024-02-21T08:34:02;9.70;99.90
23371;DHT22;11858;51.056;3.712;2024-02-21T08:36:30;9.70;99.90
23371;DHT22;11858;51.056;3.712;2024-02-21T08:38:56;9.60;99.90
23371;DHT22;11858;51.056;3.712;2024-02-21T08:41:23;9.70;99.90
23371;DHT22;11858;51.056;3.712;2024-02-21T08:43:50;9.80;99.90
23371;DHT22;11858;51.056;3.712;2024-02-21T08:46:16;9.80;99.90
23371;DHT22;11858;51.056;3.712;2024-02-21T08:48:43;9.80;99.90
23371;DHT22;11858;51.056;3.712;2024-02-21T08:51:09;9.70;99.90
23371;DHT22;11858;51.056;3.712;2024-02-21T08:53:34;9.80;99.90
23371;DHT22;11858;51.056;3.712;2024-02-21T08:56:00;9.80;99.90
23371;DHT22;11858;51.056;3.712;2024-02-21T08:58:25;9.70;99.90
23371;DHT22;11858;51.056;3.712;2024-02-21T09:00:52;9.80;99.90
23371;DHT22;11858;51.056;3.712;2024-02-21T09:03:17;9.80;99.90
23371;DHT22;11858;51.056;3.712;2024-02-21T09:05:46;9.80;99.90
23371;DHT22;11858;51.056;3.712;2024-02-21T09:08:12;9.70;99.90
23371;DHT22;11858;51.056;3.712;2024-02-21T09:10:39;9.70;99.90
23371;DHT22;11858;51.056;3.712;2024-02-21T09:13:05;9.70;99.90
23371;DHT22;11858;51.056;3.712;2024-02-21T09:15:32;9.70;99.90
23371;DHT22;11858;51.056;3.712;2024-02-21T09:17:58;9.80;99.90
23371;DHT22;11858;51.056;3.712;2024-02-21T09:20:24;9.90;99.90
23371;DHT22;11858;51.056;3.712;2024-02-21T09:22:49;10.00;99.90
23371;DHT22;11858;51.056;3.712;2024-02-21T09:25:15;10.00;99.90
23371;DHT22;11858;51.056;3.712;2024-02-21T09:27:44;10.10;99.90
23371;DHT22;11858;51.056;3.712;2024-02-21T09:30:10;10.10;99.90
23371;DHT22;11858;51.056;3.712;2024-02-21T09:32:36;10.00;99.90
23371;DHT22;11858;51.056;3.712;2024-02-21T09:35:03;10.00;99.90
23371;DHT22;11858;51.056;3.712;2024-02-21T09:37:29;10.10;99.90
23371;DHT22;11858;51.056;3.712;2024-02-21T09:39:54;10.10;99.90
23371;DHT22;11858;51.056;3.712;2024-02-21T09:42:21;10.00;99.90
23371;DHT22;11858;51.056;3.712;2024-02-21T09:44:50;10.10;99.90
23371;DHT22;11858;51.056;3.712;2024-02-21T09:47:17;10.00;99.90
23371;DHT22;11858;51.056;3.712;2024-02-21T09:49:44;9.90;99.90
23371;DHT22;11858;51.056;3.712;2024-02-21T09:52:12;10.00;99.90
23371;DHT22;11858;51.056;3.712;2024-02-21T09:54:39;10.20;99.90
23371;DHT22;11858;51.056;3.712;2024-02-21T09:57:08;10.40;99.90
23371;DHT22;11858;51.056;3.712;2024-02-21T09:59:33;10.30;99.90
23371;DHT22;11858;51.056;3.712;2024-02-21T10:01:59;10.20;99.90
23371;DHT22;11858;51.056;3.712;2024-02-21T10:04:28;10.20;99.90
23371;DHT22;11858;51.056;3.712;2024-02-21T10:06:55;10.30;99.90
23371;DHT22;11858;51.056;3.712;2024-02-21T10:09:25;10.40;99.90
23371;DHT22;11858;51.056;3.712;2024-02-21T10:11:53;10.30;99.90
23371;DHT22;11858;51.056;3.712;2024-02-21T10:14:20;10.50;99.90
23371;DHT22;11858;51.056;3.712;2024-02-21T10:16:48;10.40;99.90
23371;DHT22;11858;51.056;3.712;2024-02-21T10:19:20;10.40;99.90
23371;DHT22;11858;51.056;3.712;2024-02-21T10:22:06;10.30;99.90
23371;DHT22;11858;51.056;3.712;2024-02-21T10:24:33;10.40;99.90
23371;DHT22;11858;51.056;3.712;2024-02-21T10:27:07;10.40;99.90
23371;DHT22;11858;51.056;3.712;2024-02-21T10:29:39;10.50;99.90
23371;DHT22;11858;51.056;3.712;2024-02-21T10:34:33;10.50;99.90
23371;DHT22;11858;51.056;3.712;2024-02-21T10:37:06;10.60;99.90
23371;DHT22;11858;51.056;3.712;2024-02-21T10:39:33;10.70;99.90
23371;DHT22;11858;51.056;3.712;2024-02-21T10:42:03;10.70;99.90
23371;DHT22;11858;51.056;3.712;2024-02-21T10:44:34;10.80;99.90
23371;DHT22;11858;51.056;3.712;2024-02-21T10:47:05;10.60;99.90
23371;DHT22;11858;51.056;3.712;2024-02-21T10:49:38;10.60;99.90
23371;DHT22;11858;51.056;3.712;2024-02-21T10:55:03;10.60;99.90
23371;DHT22;11858;51.056;3.712;2024-02-21T10:57:30;10.40;99.90
23371;DHT22;11858;51.056;3.712;2024-02-21T10:59:58;10.40;99.90
23371;DHT22;11858;51.056;3.712;2024-02-21T11:02:25;10.50;99.90
23371;DHT22;11858;51.056;3.712;2024-02-21T11:04:52;10.60;99.90
23371;DHT22;11858;51.056;3.712;2024-02-21T11:07:19;10.70;99.90
23371;DHT22;11858;51.056;3.712;2024-02-21T11:09:52;10.60;99.90
23371;DHT22;11858;51.056;3.712;2024-02-21T11:12:21;10.50;99.90
23371;DHT22;11858;51.056;3.712;2024-02-21T11:14:47;10.40;99.90
23371;DHT22;11858;51.056;3.712;2024-02-21T11:17:17;10.50;99.90
23371;DHT22;11858;51.056;3.712;2024-02-21T11:19:43;10.60;99.90
23371;DHT22;11858;51.056;3.712;2024-02-21T11:22:19;10.40;99.90
23371;DHT22;11858;51.056;3.712;2024-02-21T11:24:47;10.40;99.90
23371;DHT22;11858;51.056;3.712;2024-02-21T11:27:16;10.40;99.90
23371;DHT22;11858;51.056;3.712;2024-02-21T11:29:55;10.30;99.90
23371;DHT22;11858;51.056;3.712;2024-02-21T11:32:22;10.40;99.90
23371;DHT22;11858;51.056;3.712;2024-02-21T11:34:58;10.40;99.90
23371;DHT22;11858;51.056;3.712;2024-02-21T11:37:28;10.40;99.90
23371;DHT22;11858;51.056;3.712;2024-02-21T11:39:55;10.40;99.90
23371;DHT22;11858;51.056;3.712;2024-02-21T11:42:21;10.60;99.90
23371;DHT22;11858;51.056;3.712;2024-02-21T11:44:46;10.50;99.90
23371;DHT22;11858;51.056;3.712;2024-02-21T11:47:14;10.50;99.90
23371;DHT22;11858;51.056;3.712;2024-02-21T11:49:47;10.30;99.90
23371;DHT22;11858;51.056;3.712;2024-02-21T11:52:14;10.40;99.90
23371;DHT22;11858;51.056;3.712;2024-02-21T11:54:41;10.40;99.90
23371;DHT22;11858;51.056;3.712;2024-02-21T11:57:07;10.30;99.90
23371;DHT22;11858;51.056;3.712;2024-02-21T11:59:33;10.40;99.90
23371;DHT22;11858;51.056;3.712;2024-02-21T12:02:02;10.50;99.90
23371;DHT22;11858;51.056;3.712;2024-02-21T12:04:31;10.40;99.90
23371;DHT22;11858;51.056;3.712;2024-02-21T12:06:57;10.40;99.90
23371;DHT22;11858;51.056;3.712;2024-02-21T12:09:24;10.40;99.90
23371;DHT22;11858;51.056;3.712;2024-02-21T12:12:01;10.50;99.90
23371;DHT22;11858;51.056;3.712;2024-02-21T12:14:29;10.60;99.90
23371;DHT22;11858;51.056;3.712;2024-02-21T12:16:56;10.50;99.90
23371;DHT22;11858;51.056;3.712;2024-02-21T12:19:22;10.50;99.90
23371;DHT22;11858;51.056;3.712;2024-02-21T12:21:51;10.50;99.90
23371;DHT22;11858;51.056;3.712;2024-02-21T12:24:21;10.50;99.90
23371;DHT22;11858;51.056;3.712;2024-02-21T12:26:48;10.40;99.90
23371;DHT22;11858;51.056;3.712;2024-02-21T12:29:13;10.60;99.90
23371;DHT22;11858;51.056;3.712;2024-02-21T12:31:39;10.60;99.90
23371;DHT22;11858;51.056;3.712;2024-02-21T12:34:05;10.70;99.90
23371;DHT22;11858;51.056;3.712;2024-02-21T12:36:32;10.70;99.90
23371;DHT22;11858;51.056;3.712;2024-02-21T12:38:58;10.50;99.90
23371;DHT22;11858;51.056;3.712;2024-02-21T12:41:24;10.60;99.90
23371;DHT22;11858;51.056;3.712;2024-02-21T12:43:52;10.70;99.90
23371;DHT22;11858;51.056;3.712;2024-02-21T12:46:18;10.60;99.90
23371;DHT22;11858;51.056;3.712;2024-02-21T12:48:43;10.50;99.90
23371;DHT22;11858;51.056;3.712;2024-02-21T12:51:09;10.60;99.90
23371;DHT22;11858;51.056;3.712;2024-02-21T12:53:35;10.40;99.90
23371;DHT22;11858;51.056;3.712;2024-02-21T12:56:01;10.40;99.90
23371;DHT22;11858;51.056;3.712;2024-02-21T12:58:27;10.60;99.90
23371;DHT22;11858;51.056;3.712;2024-02-21T13:00:52;10.60;99.90
23371;DHT22;11858;51.056;3.712;2024-02-21T13:03:18;10.60;99.90
23371;DHT22;11858;51.056;3.712;2024-02-21T13:05:44;10.70;99.90
23371;DHT22;11858;51.056;3.712;2024-02-21T13:08:10;10.80;99.90
23371;DHT22;11858;51.056;3.712;2024-02-21T13:10:37;10.80;99.90
23371;DHT22;11858;51.056;3.712;2024-02-21T13:13:03;10.60;99.90
23371;DHT22;11858;51.056;3.712;2024-02-21T13:15:29;10.30;99.90
23371;DHT22;11858;51.056;3.712;2024-02-21T13:17:56;10.30;99.90
23371;DHT22;11858;51.056;3.712;2024-02-21T13:20:25;10.30;99.90
23371;DHT22;11858;51.056;3.712;2024-02-21T13:22:52;10.10;99.90
23371;DHT22;11858;51.056;3.712;2024-02-21T13:25:18;10.00;99.90
23371;DHT22;11858;51.056;3.712;2024-02-21T13:27:46;10.00;99.90
23371;DHT22;11858;51.056;3.712;2024-02-21T13:30:13;10.00;99.90
23371;DHT22;11858;51.056;3.712;2024-02-21T13:32:41;9.90;99.90
23371;DHT22;11858;51.056;3.712;2024-02-21T13:35:08;9.90;99.90
23371;DHT22;11858;51.056;3.712;2024-02-21T13:37:34;9.90;99.90
23371;DHT22;11858;51.056;3.712;2024-02-21T13:40:00;9.90;99.90
23371;DHT22;11858;51.056;3.712;2024-02-21T13:42:25;9.90;99.90
23371;DHT22;11858;51.056;3.712;2024-02-21T13:44:53;9.90;99.90
23371;DHT22;11858;51.056;3.712;2024-02-21T13:47:19;9.80;99.90
23371;DHT22;11858;51.056;3.712;2024-02-21T13:49:47;9.80;99.90
23371;DHT22;11858;51.056;3.712;2024-02-21T13:52:13;9.90;99.90
23371;DHT22;11858;51.056;3.712;2024-02-21T13:54:38;9.90;99.90
23371;DHT22;11858;51.056;3.712;2024-02-21T13:57:04;9.90;99.90
23371;DHT22;11858;51.056;3.712;2024-02-21T13:59:30;10.00;99.90
23371;DHT22;11858;51.056;3.712;2024-02-21T14:01:55;10.00;99.90
23371;DHT22;11858;51.056;3.712;2024-02-21T14:04:21;9.90;99.90
23371;DHT22;11858;51.056;3.712;2024-02-21T14:06:47;9.80;99.90
23371;DHT22;11858;51.056;3.712;2024-02-21T14:09:14;9.90;99.90
23371;DHT22;11858;51.056;3.712;2024-02-21T14:11:39;9.80;99.90
23371;DHT22;11858;51.056;3.712;2024-02-21T14:14:06;9.80;99.90
23371;DHT22;11858;51.056;3.712;2024-02-21T14:16:33;9.70;99.90
23371;DHT22;11858;51.056;3.712;2024-02-21T14:18:58;9.70;99.90
23371;DHT22;11858;51.056;3.712;2024-02-21T14:21:24;9.70;99.90
23371;DHT22;11858;51.056;3.712;2024-02-21T14:23:50;9.70;99.90
23371;DHT22;11858;51.056;3.712;2024-02-21T14:26:16;9.80;99.90
23371;DHT22;11858;51.056;3.712;2024-02-21T14:28:41;9.70;99.90
23371;DHT22;11858;51.056;3.712;2024-02-21T14:31:08;9.70;99.90
23371;DHT22;11858;51.056;3.712;2024-02-21T14:33:35;9.70;99.90
23371;DHT22;11858;51.056;3.712;2024-02-21T14:36:01;9.60;99.90
23371;DHT22;11858;51.056;3.712;2024-02-21T14:38:28;9.50;99.90
23371;DHT22;11858;51.056;3.712;2024-02-21T14:40:53;9.50;99.90
23371;DHT22;11858;51.056;3.712;2024-02-21T14:43:19;9.60;99.90
23371;DHT22;11858;51.056;3.712;2024-02-21T14:45:47;9.50;99.90
23371;DHT22;11858;51.056;3.712;2024-02-21T14:48:13;9.40;99.90
23371;DHT22;11858;51.056;3.712;2024-02-21T14:50:39;9.40;99.90
23371;DHT22;11858;51.056;3.712;2024-02-21T14:53:06;9.40;99.90
23371;DHT22;11858;51.056;3.712;2024-02-21T14:55:33;9.50;99.90
23371;DHT22;11858;51.056;3.712;2024-02-21T14:57:59;9.40;99.90
23371;DHT22;11858;51.056;3.712;2024-02-21T15:00:26;9.40;99.90
23371;DHT22;11858;51.056;3.712;2024-02-21T15:02:58;9.30;99.90
23371;DHT22;11858;51.056;3.712;2024-02-21T15:05:24;9.40;99.90
23371;DHT22;11858;51.056;3.712;2024-02-21T15:07:51;9.40;99.90
23371;DHT22;11858;51.056;3.712;2024-02-21T15:10:16;9.40;99.90
23371;DHT22;11858;51.056;3.712;2024-02-21T15:12:46;9.50;99.90
23371;DHT22;11858;51.056;3.712;2024-02-21T15:15:12;9.50;99.90
23371;DHT22;11858;51.056;3.712;2024-02-21T15:17:38;9.40;99.90
23371;DHT22;11858;51.056;3.712;2024-02-21T15:20:04;9.50;99.90
23371;DHT22;11858;51.056;3.712;2024-02-21T15:22:36;9.40;99.90
23371;DHT22;11858;51.056;3.712;2024-02-21T15:25:02;9.40;99.90
23371;DHT22;11858;51.056;3.712;2024-02-21T15:27:30;9.50;99.90
23371;DHT22;11858;51.056;3.712;2024-02-21T15:29:55;9.40;99.90
23371;DHT22;11858;51.056;3.712;2024-02-21T15:32:22;9.50;99.90
23371;DHT22;11858;51.056;3.712;2024-02-21T15:34:48;9.50;99.90
23371;DHT22;11858;51.056;3.712;2024-02-21T15:37:14;9.50;99.90
23371;DHT22;11858;51.056;3.712;2024-02-21T15:39:42;9.50;99.90
23371;DHT22;11858;51.056;3.712;2024-02-21T15:42:11;9.50;99.90
23371;DHT22;11858;51.056;3.712;2024-02-21T15:44:37;9.50;99.90